createdAt,value
2019-05-26T00:00:30.247Z,7.67
2019-05-26T00:02:58.668Z,6.30
2019-05-26T00:05:27.217Z,6.15
2019-05-26T00:07:55.611Z,7.40
2019-05-26T00:10:24.044Z,6.67
2019-05-26T00:12:52.471Z,6.78
2019-05-26T00:15:20.906Z,7.83
2019-05-26T00:17:49.335Z,6.62
2019-05-26T00:20:17.907Z,7.42
2019-05-26T00:22:46.328Z,7.22
2019-05-26T00:25:15.411Z,7.42
2019-05-26T00:27:43.829Z,7.85
2019-05-26T00:30:12.611Z,7.40
2019-05-26T00:32:41.018Z,7.92
2019-05-26T00:35:09.983Z,8.55
2019-05-26T00:37:49.331Z,8.50
2019-05-26T00:40:09.283Z,9.17
2019-05-26T00:42:38.034Z,7.47
2019-05-26T00:45:08.000Z,8.28
2019-05-26T00:47:36.414Z,7.17
2019-05-26T00:50:09.843Z,7.60
2019-05-26T00:52:38.661Z,7.72
2019-05-26T00:55:07.939Z,6.83
2019-05-26T00:57:36.688Z,7.80
2019-05-26T01:00:12.035Z,7.90
2019-05-26T01:02:40.528Z,8.85
2019-05-26T01:05:09.662Z,8.30
2019-05-26T01:07:38.362Z,8.48
2019-05-26T01:10:10.132Z,9.18
2019-05-26T01:12:38.689Z,9.13
2019-05-26T01:15:08.272Z,7.67
2019-05-26T01:17:36.687Z,9.38
2019-05-26T01:20:06.656Z,8.90
2019-05-26T01:22:35.087Z,8.95
2019-05-26T01:25:05.439Z,9.35
2019-05-26T01:27:33.890Z,9.55
2019-05-26T01:30:02.340Z,10.15
2019-05-26T01:32:30.768Z,10.15
2019-05-26T01:34:59.223Z,9.83
2019-05-26T01:37:28.391Z,10.38
2019-05-26T01:39:56.830Z,10.53
2019-05-26T01:42:25.275Z,10.10
2019-05-26T01:44:53.713Z,8.75
2019-05-26T01:47:22.169Z,9.65
2019-05-26T01:49:50.588Z,9.63
2019-05-26T01:52:19.049Z,8.58
2019-05-26T01:54:47.519Z,9.43
2019-05-26T01:57:15.994Z,8.90
2019-05-26T01:59:44.415Z,8.18
2019-05-26T02:02:12.928Z,9.20
2019-05-26T02:04:41.352Z,9.70
2019-05-26T02:07:09.794Z,8.48
2019-05-26T02:09:38.308Z,9.35
2019-05-26T02:12:06.827Z,9.18
2019-05-26T02:14:35.256Z,9.65
2019-05-26T02:17:03.939Z,9.33
2019-05-26T02:19:32.355Z,9.93
2019-05-26T02:22:00.801Z,10.03
2019-05-26T02:24:29.219Z,10.48
2019-05-26T02:26:57.663Z,9.65
2019-05-26T02:29:26.066Z,10.28
2019-05-26T02:31:54.499Z,9.28
2019-05-26T02:34:22.937Z,9.90
2019-05-26T02:36:51.406Z,9.53
2019-05-26T02:39:19.823Z,9.65
2019-05-26T02:41:48.261Z,9.75
2019-05-26T02:44:16.668Z,9.10
2019-05-26T02:46:45.163Z,9.23
2019-05-26T02:49:13.576Z,9.88
2019-05-26T02:51:42.008Z,9.18
2019-05-26T02:54:10.414Z,9.08
2019-05-26T02:56:39.800Z,9.93
2019-05-26T02:59:08.226Z,10.32
2019-05-26T03:01:37.297Z,9.58
2019-05-26T03:04:05.718Z,11.25
2019-05-26T03:06:34.888Z,11.35
2019-05-26T03:09:22.145Z,10.78
2019-05-26T03:11:38.823Z,10.20
2019-05-26T03:14:08.083Z,10.55
2019-05-26T03:16:38.295Z,10.00
2019-05-26T03:19:06.772Z,9.20
2019-05-26T03:21:35.455Z,10.98
2019-05-26T03:24:04.801Z,9.93
2019-05-26T03:26:33.351Z,9.45
2019-05-26T03:29:01.780Z,10.05
2019-05-26T03:31:30.202Z,10.65
2019-05-26T03:33:58.630Z,10.32
2019-05-26T03:36:27.126Z,11.28
2019-05-26T03:38:55.567Z,10.30
2019-05-26T03:41:23.984Z,11.38
2019-05-26T03:43:52.504Z,10.28
2019-05-26T03:46:21.162Z,10.55
2019-05-26T03:48:50.002Z,11.20
2019-05-26T03:51:18.892Z,10.35
2019-05-26T03:53:47.510Z,10.88
2019-05-26T03:56:15.933Z,12.20
2019-05-26T03:58:44.434Z,11.78
2019-05-26T04:01:13.511Z,10.23
2019-05-26T04:03:41.964Z,10.88
2019-05-26T04:06:10.557Z,10.70
2019-05-26T04:08:39.049Z,11.90
2019-05-26T04:11:07.746Z,13.45
2019-05-26T04:13:36.184Z,12.33
2019-05-26T04:16:04.816Z,11.55
2019-05-26T04:18:33.319Z,10.78
2019-05-26T04:21:01.796Z,11.68
2019-05-26T04:23:30.304Z,11.30
2019-05-26T04:25:58.716Z,11.38
2019-05-26T04:28:27.148Z,11.88
2019-05-26T04:30:55.643Z,11.08
2019-05-26T04:33:24.073Z,12.70
2019-05-26T04:35:52.493Z,13.05
2019-05-26T04:38:20.915Z,11.43
2019-05-26T04:40:49.345Z,11.75
2019-05-26T04:43:17.843Z,12.05
2019-05-26T04:45:46.261Z,13.20
2019-05-26T04:48:14.696Z,12.25
2019-05-26T04:50:43.111Z,12.73
2019-05-26T04:53:11.572Z,12.85
2019-05-26T04:55:40.045Z,12.20
2019-05-26T04:58:08.476Z,11.08
2019-05-26T05:00:36.891Z,12.47
2019-05-26T05:03:05.320Z,12.75
2019-05-26T05:05:33.735Z,12.35
2019-05-26T05:08:02.166Z,12.10
2019-05-26T05:10:42.022Z,12.58
2019-05-26T05:13:00.886Z,12.20
2019-05-26T05:15:29.373Z,12.68
2019-05-26T05:17:57.798Z,15.40
2019-05-26T05:20:26.223Z,14.50
2019-05-26T05:22:54.650Z,12.25
2019-05-26T05:25:23.160Z,12.78
2019-05-26T05:27:51.606Z,13.05
2019-05-26T05:30:20.982Z,13.60
2019-05-26T05:32:49.408Z,12.50
2019-05-26T05:35:19.377Z,12.93
2019-05-26T05:37:47.815Z,13.15
2019-05-26T05:40:17.372Z,11.65
2019-05-26T05:42:45.798Z,11.38
2019-05-26T05:45:14.306Z,13.30
2019-05-26T05:47:42.743Z,13.28
2019-05-26T05:50:11.606Z,11.90
2019-05-26T05:52:40.028Z,11.95
2019-05-26T05:55:09.001Z,10.78
2019-05-26T05:57:37.422Z,10.82
2019-05-26T06:00:26.714Z,12.30
2019-05-26T06:02:55.137Z,11.88
2019-05-26T06:05:23.557Z,12.35
2019-05-26T06:07:51.979Z,12.37
2019-05-26T06:10:20.651Z,12.07
2019-05-26T06:12:49.062Z,11.30
2019-05-26T06:15:17.822Z,11.53
2019-05-26T06:17:46.227Z,12.15
2019-05-26T06:20:15.704Z,10.65
2019-05-26T06:22:44.123Z,10.53
2019-05-26T06:25:12.715Z,12.28
2019-05-26T06:27:41.107Z,11.30
2019-05-26T06:30:10.591Z,11.65
2019-05-26T06:32:39.085Z,11.43
2019-05-26T06:35:07.922Z,12.18
2019-05-26T06:37:36.353Z,10.53
2019-05-26T06:40:08.629Z,11.45
2019-05-26T06:42:37.200Z,10.53
2019-05-26T06:45:06.961Z,10.98
2019-05-26T06:47:35.387Z,11.60
2019-05-26T06:50:05.367Z,10.85
2019-05-26T06:52:33.857Z,10.75
2019-05-26T06:55:02.314Z,10.88
2019-05-26T06:57:30.729Z,11.00
2019-05-26T06:59:59.168Z,10.55
2019-05-26T07:02:27.582Z,10.72
2019-05-26T07:04:56.024Z,11.28
2019-05-26T07:07:24.430Z,10.75
2019-05-26T07:09:52.858Z,10.38
2019-05-26T07:12:21.286Z,11.00
2019-05-26T07:14:49.787Z,10.93
2019-05-26T07:17:20.501Z,10.35
2019-05-26T07:19:48.511Z,11.03
2019-05-26T07:22:17.027Z,9.78
2019-05-26T07:24:45.475Z,10.95
2019-05-26T07:27:13.887Z,10.60
2019-05-26T07:29:42.460Z,10.10
2019-05-26T07:32:10.874Z,9.13
2019-05-26T07:34:39.302Z,9.55
2019-05-26T07:37:07.729Z,9.83
2019-05-26T07:39:36.202Z,10.50
2019-05-26T07:42:10.509Z,9.28
2019-05-26T07:44:34.962Z,8.43
2019-05-26T07:47:03.472Z,8.18
2019-05-26T07:49:31.873Z,8.50
2019-05-26T07:52:00.309Z,7.15
2019-05-26T07:54:28.726Z,7.30
2019-05-26T07:56:57.159Z,8.85
2019-05-26T07:59:25.568Z,8.20
2019-05-26T08:01:54.009Z,8.18
2019-05-26T08:04:22.410Z,7.40
2019-05-26T08:06:50.843Z,7.10
2019-05-26T08:09:19.303Z,7.37
2019-05-26T08:11:47.799Z,7.72
2019-05-26T08:14:16.230Z,6.80
2019-05-26T08:16:44.684Z,7.72
2019-05-26T08:19:13.148Z,7.65
2019-05-26T08:21:41.583Z,7.45
2019-05-26T08:24:09.995Z,6.70
2019-05-26T08:26:38.425Z,6.03
2019-05-26T08:29:06.853Z,5.05
2019-05-26T08:31:35.275Z,6.72
2019-05-26T08:34:03.759Z,6.60
2019-05-26T08:36:32.190Z,6.20
2019-05-26T08:39:00.604Z,6.28
2019-05-26T08:41:29.035Z,6.30
2019-05-26T08:43:57.464Z,5.72
2019-05-26T08:46:25.888Z,5.10
2019-05-26T08:48:54.308Z,6.45
2019-05-26T08:51:22.725Z,5.22
2019-05-26T08:53:51.138Z,5.17
2019-05-26T08:56:19.566Z,5.70
2019-05-26T08:58:47.978Z,5.90
2019-05-26T09:01:16.415Z,5.28
2019-05-26T09:03:44.836Z,5.65
2019-05-26T09:06:13.263Z,5.42
2019-05-26T09:08:41.667Z,5.37
2019-05-26T09:11:10.099Z,6.37
2019-05-26T09:13:38.506Z,5.80
2019-05-26T09:16:06.995Z,5.35
2019-05-26T09:18:35.431Z,5.97
2019-05-26T09:21:03.834Z,4.75
2019-05-26T09:23:32.263Z,4.75
2019-05-26T09:26:00.681Z,5.28
2019-05-26T09:28:29.107Z,5.25
2019-05-26T09:30:57.567Z,4.60
2019-05-26T09:33:26.030Z,4.35
2019-05-26T09:35:54.443Z,5.08
2019-05-26T09:38:22.872Z,6.40
2019-05-26T09:40:51.295Z,4.53
2019-05-26T09:43:19.723Z,6.58
2019-05-26T09:45:48.135Z,5.65
2019-05-26T09:48:16.562Z,5.62
2019-05-26T09:50:44.979Z,5.40
2019-05-26T09:53:13.418Z,5.25
2019-05-26T09:55:41.851Z,4.92
2019-05-26T09:58:10.347Z,4.15
2019-05-26T10:00:38.770Z,4.35
2019-05-26T10:03:07.208Z,4.22
2019-05-26T10:05:35.610Z,4.30
2019-05-26T10:08:04.908Z,4.97
2019-05-26T10:10:33.319Z,4.10
2019-05-26T10:13:01.824Z,5.15
2019-05-26T10:15:30.243Z,4.25
2019-05-26T10:17:58.675Z,4.25
2019-05-26T10:20:27.084Z,4.42
2019-05-26T10:22:55.552Z,5.30
2019-05-26T10:25:24.001Z,4.87
2019-05-26T10:27:52.443Z,4.50
2019-05-26T10:30:21.591Z,4.58
2019-05-26T10:32:50.016Z,4.30
2019-05-26T10:35:18.445Z,4.67
2019-05-26T10:37:46.876Z,4.40
2019-05-26T10:40:15.431Z,4.25
2019-05-26T10:42:43.847Z,4.70
2019-05-26T10:45:12.611Z,3.83
2019-05-26T10:47:41.030Z,4.20
2019-05-26T10:50:10.793Z,4.58
2019-05-26T10:52:39.215Z,4.53
2019-05-26T10:55:07.863Z,4.67
2019-05-26T10:57:36.347Z,4.40
2019-05-26T11:00:07.052Z,3.95
2019-05-26T11:02:35.532Z,4.40
2019-05-26T11:05:05.212Z,4.87
2019-05-26T11:07:33.619Z,4.78
2019-05-26T11:10:02.056Z,5.12
2019-05-26T11:12:30.538Z,4.50
2019-05-26T11:14:58.982Z,4.90
2019-05-26T11:17:27.384Z,4.78
2019-05-26T11:19:55.813Z,4.47
2019-05-26T11:22:24.219Z,4.72
2019-05-26T11:24:52.656Z,4.58
2019-05-26T11:27:21.070Z,4.10
2019-05-26T11:29:49.497Z,4.80
2019-05-26T11:32:17.915Z,5.10
2019-05-26T11:35:00.736Z,6.37
2019-05-26T11:37:16.510Z,4.90
2019-05-26T11:39:45.056Z,4.78
2019-05-26T11:42:14.254Z,4.70
2019-05-26T11:44:42.870Z,4.42
2019-05-26T11:47:11.358Z,4.40
2019-05-26T11:49:39.781Z,3.90
2019-05-26T11:52:08.242Z,4.45
2019-05-26T11:54:36.724Z,4.40
2019-05-26T11:57:05.474Z,4.03
2019-05-26T11:59:33.893Z,4.30
2019-05-26T12:02:02.312Z,5.35
2019-05-26T12:04:30.741Z,3.85
2019-05-26T12:06:59.146Z,4.03
2019-05-26T12:09:27.586Z,5.55
2019-05-26T12:11:56.005Z,4.10
2019-05-26T12:14:34.300Z,4.83
2019-05-26T12:16:54.570Z,4.53
2019-05-26T12:19:22.990Z,5.28
2019-05-26T12:21:51.414Z,4.30
2019-05-26T12:24:19.839Z,3.65
2019-05-26T12:26:48.247Z,4.03
2019-05-26T12:29:16.690Z,4.22
2019-05-26T12:31:45.103Z,3.87
2019-05-26T12:34:13.539Z,3.95
2019-05-26T12:36:41.959Z,5.15
2019-05-26T12:39:10.391Z,3.85
2019-05-26T12:41:38.801Z,4.33
2019-05-26T12:44:10.726Z,3.67
2019-05-26T12:46:37.436Z,3.22
2019-05-26T12:49:05.865Z,3.67
2019-05-26T12:51:34.295Z,3.30
2019-05-26T12:54:02.755Z,3.25
2019-05-26T12:56:31.230Z,3.35
2019-05-26T12:58:59.659Z,3.25
2019-05-26T13:01:28.083Z,3.20
2019-05-26T13:03:56.503Z,2.75
2019-05-26T13:06:24.935Z,4.03
2019-05-26T13:08:53.348Z,3.25
2019-05-26T13:11:22.923Z,3.70
2019-05-26T13:13:51.482Z,3.40
2019-05-26T13:16:19.960Z,3.65
2019-05-26T13:18:48.372Z,4.30
2019-05-26T13:21:16.801Z,3.80
2019-05-26T13:23:45.210Z,4.10
2019-05-26T13:26:13.638Z,4.47
2019-05-26T13:28:42.057Z,5.17
2019-05-26T13:31:10.483Z,3.80
2019-05-26T13:33:38.890Z,3.40
2019-05-26T13:36:07.315Z,3.30
2019-05-26T13:38:35.743Z,2.87
2019-05-26T13:41:04.236Z,3.62
2019-05-26T13:43:32.650Z,3.02
2019-05-26T13:46:01.077Z,3.02
2019-05-26T13:48:29.491Z,3.62
2019-05-26T13:50:57.915Z,4.78
2019-05-26T13:53:26.397Z,3.83
2019-05-26T13:55:54.824Z,4.22
2019-05-26T13:58:23.235Z,3.33
2019-05-26T14:00:51.658Z,7.22
2019-05-26T14:03:20.138Z,3.65
2019-05-26T14:05:48.562Z,3.30
2019-05-26T14:08:16.987Z,3.67
2019-05-26T14:10:45.411Z,2.83
2019-05-26T14:13:13.823Z,2.22
2019-05-26T14:15:42.257Z,2.10
2019-05-26T14:18:10.738Z,2.40
2019-05-26T14:20:42.925Z,2.12
2019-05-26T14:23:12.075Z,2.35
2019-05-26T14:25:40.578Z,2.50
2019-05-26T14:28:09.062Z,3.52
2019-05-26T14:30:37.554Z,2.62
2019-05-26T14:33:06.129Z,2.70
2019-05-26T14:35:34.627Z,2.65
2019-05-26T14:38:03.133Z,2.50
2019-05-26T14:40:31.544Z,2.35
2019-05-26T14:43:00.035Z,3.30
2019-05-26T14:45:28.448Z,2.17
2019-05-26T14:47:56.947Z,2.33
2019-05-26T14:50:25.443Z,2.17
2019-05-26T14:52:54.028Z,2.35
2019-05-26T14:55:22.515Z,2.67
2019-05-26T14:57:50.944Z,2.02
2019-05-26T15:00:20.198Z,2.02
2019-05-26T15:02:48.628Z,2.10
2019-05-26T15:05:17.274Z,2.17
2019-05-26T15:07:45.709Z,2.17
2019-05-26T15:10:14.469Z,2.70
2019-05-26T15:12:43.030Z,2.30
2019-05-26T15:15:13.475Z,3.15
2019-05-26T15:17:41.968Z,2.30
2019-05-26T15:20:10.923Z,1.77
2019-05-26T15:22:39.356Z,1.90
2019-05-26T15:25:08.106Z,2.00
2019-05-26T15:27:36.540Z,2.20
2019-05-26T15:30:09.720Z,2.00
2019-05-26T15:32:38.231Z,1.98
2019-05-26T15:35:07.781Z,1.92
2019-05-26T15:37:36.268Z,2.20
2019-05-26T15:40:08.616Z,2.08
2019-05-26T15:42:37.183Z,2.67
2019-05-26T15:45:07.512Z,3.33
2019-05-26T15:47:36.101Z,2.50
2019-05-26T15:50:07.542Z,2.58
2019-05-26T15:52:35.983Z,2.85
2019-05-26T15:55:04.935Z,2.10
2019-05-26T15:57:33.358Z,2.20
2019-05-26T16:00:01.857Z,2.25
2019-05-26T16:02:30.272Z,2.40
2019-05-26T16:04:59.125Z,2.45
2019-05-26T16:07:27.671Z,2.33
2019-05-26T16:09:56.163Z,2.10
2019-05-26T16:12:24.597Z,2.92
2019-05-26T16:14:53.013Z,2.98
2019-05-26T16:17:21.435Z,2.62
2019-05-26T16:19:49.845Z,2.45
2019-05-26T16:22:18.277Z,2.50
2019-05-26T16:24:46.700Z,2.42
2019-05-26T16:27:19.201Z,2.10
2019-05-26T16:29:46.764Z,2.33
2019-05-26T16:32:18.649Z,3.10
2019-05-26T16:34:45.511Z,2.17
2019-05-26T16:37:13.983Z,5.47
2019-05-26T16:39:42.450Z,2.55
2019-05-26T16:42:10.913Z,2.70
2019-05-26T16:44:39.333Z,2.50
2019-05-26T16:47:07.818Z,2.50
2019-05-26T16:49:36.249Z,2.47
2019-05-26T16:52:05.402Z,3.62
2019-05-26T16:54:34.371Z,2.42
2019-05-26T16:57:02.787Z,2.75
2019-05-26T16:59:31.214Z,2.65
2019-05-26T17:01:59.630Z,2.20
2019-05-26T17:04:28.129Z,2.60
2019-05-26T17:06:56.554Z,2.75
2019-05-26T17:09:24.979Z,3.55
2019-05-26T17:11:53.392Z,3.70
2019-05-26T17:14:21.823Z,3.33
2019-05-26T17:16:50.231Z,3.58
2019-05-26T17:19:18.668Z,3.72
2019-05-26T17:21:47.157Z,4.20
2019-05-26T17:24:15.603Z,4.95
2019-05-26T17:26:44.082Z,4.25
2019-05-26T17:29:12.579Z,4.00
2019-05-26T17:31:41.002Z,3.47
2019-05-26T17:34:09.431Z,3.95
2019-05-26T17:36:37.847Z,2.77
2019-05-26T17:39:08.678Z,2.72
2019-05-26T17:41:37.571Z,2.70
2019-05-26T17:44:06.366Z,3.15
2019-05-26T17:46:34.847Z,3.42
2019-05-26T17:49:03.347Z,2.47
2019-05-26T17:51:31.897Z,2.70
2019-05-26T17:54:00.387Z,2.83
2019-05-26T17:56:28.798Z,2.58
2019-05-26T17:58:57.231Z,3.02
2019-05-26T18:01:25.650Z,3.12
2019-05-26T18:03:54.082Z,3.30
2019-05-26T18:06:22.487Z,2.75
2019-05-26T18:08:50.918Z,2.67
2019-05-26T18:11:19.332Z,2.90
2019-05-26T18:13:47.761Z,2.77
2019-05-26T18:16:16.252Z,2.72
2019-05-26T18:18:44.667Z,3.02
2019-05-26T18:21:13.083Z,2.83
2019-05-26T18:23:41.515Z,2.33
2019-05-26T18:26:09.927Z,2.20
2019-05-26T18:28:38.356Z,2.52
2019-05-26T18:31:06.784Z,2.50
2019-05-26T18:33:35.215Z,2.35
2019-05-26T18:36:03.623Z,2.37
2019-05-26T18:38:32.035Z,2.90
2019-05-26T18:41:00.466Z,2.62
2019-05-26T18:43:28.882Z,2.55
2019-05-26T18:45:57.311Z,2.60
2019-05-26T18:48:25.730Z,3.20
2019-05-26T18:50:54.149Z,2.60
2019-05-26T18:53:22.566Z,3.10
2019-05-26T18:55:51.050Z,2.67
2019-05-26T18:58:19.472Z,2.72
2019-05-26T19:00:47.998Z,3.10
2019-05-26T19:03:16.463Z,2.77
2019-05-26T19:05:44.891Z,3.12
2019-05-26T19:08:13.298Z,2.98
2019-05-26T19:10:41.730Z,3.50
2019-05-26T19:13:10.759Z,3.37
2019-05-26T19:15:39.347Z,3.22
2019-05-26T19:18:19.267Z,4.00
2019-05-26T19:20:37.982Z,3.98
2019-05-26T19:23:06.469Z,4.33
2019-05-26T19:25:35.254Z,4.42
2019-05-26T19:28:03.667Z,5.40
2019-05-26T19:30:32.167Z,5.60
2019-05-26T19:33:00.594Z,4.65
2019-05-26T19:35:29.026Z,12.03
2019-05-26T19:37:57.444Z,6.10
2019-05-26T19:40:25.863Z,6.30
2019-05-26T19:42:54.279Z,5.28
2019-05-26T19:45:22.714Z,6.55
2019-05-26T19:47:51.167Z,5.22
2019-05-26T19:50:19.654Z,5.05
2019-05-26T19:52:49.963Z,6.67
2019-05-26T19:55:18.303Z,6.05
2019-05-26T19:57:46.707Z,6.40
2019-05-26T20:00:16.839Z,5.92
2019-05-26T20:02:45.254Z,6.65
2019-05-26T20:05:14.466Z,6.92
2019-05-26T20:07:42.956Z,7.90
2019-05-26T20:10:12.103Z,5.08
2019-05-26T20:12:40.533Z,5.53
2019-05-26T20:15:10.361Z,5.45
2019-05-26T20:17:38.790Z,4.87
2019-05-26T20:20:10.835Z,5.28
2019-05-26T20:22:39.438Z,5.17
2019-05-26T20:25:11.153Z,5.08
2019-05-26T20:27:39.572Z,5.25
2019-05-26T20:30:09.432Z,4.65
2019-05-26T20:32:37.928Z,4.95
2019-05-26T20:35:07.686Z,4.95
2019-05-26T20:37:36.186Z,4.72
2019-05-26T20:40:08.852Z,4.53
2019-05-26T20:42:37.274Z,4.92
2019-05-26T20:45:07.997Z,6.55
2019-05-26T20:47:36.423Z,7.37
2019-05-26T20:50:06.968Z,5.83
2019-05-26T20:52:35.390Z,5.62
2019-05-26T20:55:07.064Z,5.60
2019-05-26T20:57:35.491Z,6.28
2019-05-26T21:00:07.102Z,5.83
2019-05-26T21:02:35.803Z,5.58
2019-05-26T21:05:06.656Z,6.40
2019-05-26T21:07:35.098Z,6.22
2019-05-26T21:10:04.756Z,6.47
2019-05-26T21:12:33.246Z,5.50
2019-05-26T21:15:01.685Z,5.85
2019-05-26T21:17:30.166Z,5.83
2019-05-26T21:19:58.584Z,6.05
2019-05-26T21:22:27.075Z,5.72
2019-05-26T21:24:55.486Z,5.55
2019-05-26T21:27:23.919Z,5.58
2019-05-26T21:29:52.332Z,4.90
2019-05-26T21:32:20.773Z,4.80
2019-05-26T21:34:49.167Z,4.67
2019-05-26T21:37:17.595Z,4.87
2019-05-26T21:39:46.033Z,5.20
2019-05-26T21:42:16.036Z,5.08
2019-05-26T21:44:44.753Z,4.90
2019-05-26T21:47:13.179Z,5.03
2019-05-26T21:49:41.605Z,4.55
2019-05-26T21:52:10.035Z,4.50
2019-05-26T21:54:41.194Z,4.47
2019-05-26T21:57:08.615Z,4.22
2019-05-26T21:59:37.025Z,4.25
2019-05-26T22:02:05.758Z,4.78
2019-05-26T22:04:34.251Z,4.33
2019-05-26T22:07:02.679Z,4.72
2019-05-26T22:09:31.167Z,3.98
2019-05-26T22:11:59.583Z,4.28
2019-05-26T22:14:28.011Z,4.67
2019-05-26T22:16:56.423Z,4.53
2019-05-26T22:19:24.855Z,4.45
2019-05-26T22:22:12.747Z,4.55
2019-05-26T22:24:41.175Z,3.70
2019-05-26T22:27:09.599Z,3.83
2019-05-26T22:29:38.019Z,4.50
2019-05-26T22:32:06.505Z,4.62
2019-05-26T22:34:34.932Z,3.77
2019-05-26T22:37:03.359Z,4.37
2019-05-26T22:39:31.780Z,4.42
2019-05-26T22:42:00.195Z,4.22
2019-05-26T22:44:28.624Z,4.05
2019-05-26T22:46:58.503Z,4.05
2019-05-26T22:49:26.933Z,4.28
2019-05-26T22:51:59.599Z,4.28
2019-05-26T22:54:28.099Z,4.35
2019-05-26T22:56:56.542Z,4.08
2019-05-26T22:59:24.953Z,4.75
2019-05-26T23:01:54.252Z,4.42
2019-05-26T23:04:23.081Z,4.22
2019-05-26T23:06:51.497Z,4.95
2019-05-26T23:09:19.922Z,4.70
2019-05-26T23:11:48.332Z,4.50
2019-05-26T23:14:16.759Z,4.15
2019-05-26T23:16:45.166Z,4.78
2019-05-26T23:19:19.457Z,3.58
2019-05-26T23:21:43.759Z,3.77
2019-05-26T23:24:12.197Z,4.08
2019-05-26T23:26:40.637Z,4.35
2019-05-26T23:29:09.430Z,3.83
2019-05-26T23:31:37.842Z,4.65
2019-05-26T23:34:06.275Z,4.70
2019-05-26T23:36:34.695Z,4.25
2019-05-26T23:39:04.681Z,4.42
2019-05-26T23:41:33.158Z,4.17
2019-05-26T23:44:01.587Z,4.20
2019-05-26T23:46:30.012Z,4.37
2019-05-26T23:48:58.454Z,3.98
2019-05-26T23:51:26.875Z,4.08
2019-05-26T23:53:55.290Z,4.95
2019-05-26T23:56:23.715Z,4.33
2019-05-26T23:58:52.141Z,4.53
